Terminal Aerodrome Forecast
Issued by NWS Memphis, TN

Home | Current Version | Previous Version | Text Only | Print | Product List | Glossary On
Versions: 1 2 3 4 5 6 7 8 9 10 11 12 13
045
FTUS44 KMEG 232329
TAFMKL
TAF
KMKL 232329Z 2400/2424 19009G14KT P6SM FEW250
     FM240400 16009G15KT P6SM SCT250
     FM240700 17012KT P6SM OVC070
     FM241200 17011G17KT P6SM OVC015
     FM241400 18013G20KT P6SM OVC040
     FM242000 18013G20KT P6SM OVC100=

USA.gov is the U.S. government's official web portal to all federal, state and local government web resources and services.